PWSweather.com
Personal Weather Stations
Station Observations
KOMOKA
Komoka Village, Komoka, ON N0L IRO

Komoka VillageKomoka, ON N0L IRO

Lat: 42.9542444, Lon: -81.4348861

Elevation: 805

Station Type: Davis Vantage Pro 2

Latest ConditionsUpdated 2:07:55 PM EST Friday, Dec 9, 2016
Currently Today's Max Today's Min Today's Average
Temperature 30.0°F-1.1°C 31.1°F-0.5°C 26.2°F-3.2°C 28.3°F-2.1°C
Dew Point 23.7°F-4.6°C 27.5°F-2.5°C 22.6°F-5.2°C 24.3°F-4.3°C
Winds 5.0 mph WNW8.0 kmh WNW 8.0 mph WNW12.9 kmh WNW - 4.9 mph 7.9 kmh
Wind Gusts 19.0 mph30.6 kmh 21.0 mph33.8 kmh - -
Humidity 77% 90% 75% 85%
Pressure 30.32 in1026.8 mb 30.33 in1027.1 mb 30.15 in1021.0 mb -
Precipitation - 0.01 in0.3 mm - -
Hour Temp Dew Point Humidity Winds Wind Gusts Pressure Precip Precip Rate Daily Precip Total
02:07 PM 30.0°F-1.1°C 23.7°F-4.6°C 77% 5.0 mph WNW8.0 kmh WNW 19.0 mph30.6 kmh 30.32 in1026.8 mb 0.00 in0.0 mm 0.00 in0.0 mm 0.01 in0.3 mm
02:00 PM 29.8°F-1.2°C 23.2°F-4.9°C 76% 4.0 mph WNW6.4 kmh WNW 19.0 mph30.6 kmh 30.32 in1026.8 mb 0.00 in0.0 mm 0.00 in0.0 mm 0.01 in0.3 mm
01:53 PM 29.8°F-1.2°C 22.8°F-5.1°C 75% 7.0 mph WNW11.3 kmh WNW 17.0 mph27.4 kmh 30.32 in1026.8 mb 0.00 in0.0 mm 0.00 in0.0 mm 0.01 in0.3 mm
01:46 PM 29.8°F-1.2°C 24.3°F-4.3°C 79% 5.0 mph WNW8.0 kmh WNW 16.0 mph25.7 kmh 30.32 in1026.8 mb 0.00 in0.0 mm 0.00 in0.0 mm 0.01 in0.3 mm
01:39 PM 29.8°F-1.2°C 23.9°F-4.5°C 78% 5.0 mph WNW8.0 kmh WNW 19.0 mph30.6 kmh 30.32 in1026.8 mb 0.00 in0.0 mm 0.00 in0.0 mm 0.01 in0.3 mm
01:32 PM 30.0°F-1.1°C 24.1°F-4.4°C 78% 5.0 mph WNW8.0 kmh WNW 15.0 mph24.1 kmh 30.31 in1026.4 mb 0.00 in0.0 mm 0.00 in0.0 mm 0.01 in0.3 mm
01:25 PM 30.2°F-1.0°C 24.1°F-4.4°C 78% 5.0 mph WNW8.0 kmh WNW 15.0 mph24.1 kmh 30.31 in1026.4 mb 0.00 in0.0 mm 0.00 in0.0 mm 0.01 in0.3 mm
01:18 PM 30.2°F-1.0°C 24.4°F-4.2°C 79% 5.0 mph WNW8.0 kmh WNW 15.0 mph24.1 kmh 30.31 in1026.4 mb 0.00 in0.0 mm 0.00 in0.0 mm 0.01 in0.3 mm
01:11 PM 30.0°F-1.1°C 24.1°F-4.4°C 78% 7.0 mph WNW11.3 kmh WNW 19.0 mph30.6 kmh 30.32 in1026.8 mb 0.00 in0.0 mm 0.00 in0.0 mm 0.01 in0.3 mm
01:04 PM 30.4°F-0.9°C 23.9°F-4.5°C 77% 8.0 mph WNW12.9 kmh WNW 19.0 mph30.6 kmh 30.32 in1026.8 mb 0.00 in0.0 mm 0.00 in0.0 mm 0.01 in0.3 mm
12:57 PM 30.6°F-0.8°C 24.6°F-4.1°C 78% 5.0 mph WNW8.0 kmh WNW 19.0 mph30.6 kmh 30.32 in1026.8 mb 0.00 in0.0 mm 0.00 in0.0 mm 0.01 in0.3 mm
12:50 PM 30.7°F-0.7°C 25.3°F-3.7°C 80% 5.0 mph WNW8.0 kmh WNW 15.0 mph24.1 kmh 30.32 in1026.8 mb 0.00 in0.0 mm 0.00 in0.0 mm 0.01 in0.3 mm
12:43 PM 30.9°F-0.6°C 25.5°F-3.6°C 80% 7.0 mph WNW11.3 kmh WNW 15.0 mph24.1 kmh 30.32 in1026.8 mb 0.00 in0.0 mm 0.00 in0.0 mm 0.01 in0.3 mm
12:36 PM 31.1°F-0.5°C 25.9°F-3.4°C 81% 5.0 mph WNW8.0 kmh WNW 16.0 mph25.7 kmh 30.32 in1026.8 mb 0.00 in0.0 mm 0.00 in0.0 mm 0.01 in0.3 mm
12:29 PM 30.7°F-0.7°C 25.9°F-3.4°C 82% 5.0 mph NW8.0 kmh NW 16.0 mph25.7 kmh 30.32 in1026.8 mb 0.00 in0.0 mm 0.00 in0.0 mm 0.01 in0.3 mm
12:22 PM 30.6°F-0.8°C 25.9°F-3.4°C 83% 5.0 mph WNW8.0 kmh WNW 16.0 mph25.7 kmh 30.32 in1026.8 mb 0.01 in0.3 mm 0.00 in0.0 mm 0.01 in0.3 mm
12:15 PM 30.4°F-0.9°C 25.5°F-3.6°C 82% 7.0 mph WNW11.3 kmh WNW 16.0 mph25.7 kmh 30.32 in1026.8 mb 0.01 in0.3 mm 0.00 in0.0 mm 0.01 in0.3 mm
12:08 PM 30.6°F-0.8°C 25.9°F-3.4°C 83% 8.0 mph WNW12.9 kmh WNW 15.0 mph24.1 kmh 30.32 in1026.8 mb 0.01 in0.3 mm 0.00 in0.0 mm 0.01 in0.3 mm
12:01 PM 30.6°F-0.8°C 26.4°F-3.1°C 84% 7.0 mph WNW11.3 kmh WNW 16.0 mph25.7 kmh 30.32 in1026.8 mb 0.01 in0.3 mm 0.00 in0.0 mm 0.01 in0.3 mm
11:54 AM 30.6°F-0.8°C 26.6°F-3.0°C 85% 8.0 mph WNW12.9 kmh WNW 19.0 mph30.6 kmh 30.32 in1026.8 mb 0.01 in0.3 mm 0.00 in0.0 mm 0.01 in0.3 mm
11:47 AM 30.4°F-0.9°C 26.4°F-3.1°C 85% 7.0 mph WNW11.3 kmh WNW 21.0 mph33.8 kmh 30.33 in1027.1 mb 0.01 in0.3 mm 0.00 in0.0 mm 0.01 in0.3 mm
11:40 AM 30.0°F-1.1°C 26.4°F-3.1°C 86% 7.0 mph WNW11.3 kmh WNW 21.0 mph33.8 kmh 30.33 in1027.1 mb 0.01 in0.3 mm 0.00 in0.0 mm 0.01 in0.3 mm
11:33 AM 30.0°F-1.1°C 26.4°F-3.1°C 86% 5.0 mph WNW8.0 kmh WNW 16.0 mph25.7 kmh 30.33 in1027.1 mb 0.01 in0.3 mm 0.00 in0.0 mm 0.01 in0.3 mm
11:26 AM 30.0°F-1.1°C 26.8°F-2.9°C 87% 7.0 mph WNW11.3 kmh WNW 15.0 mph24.1 kmh 30.33 in1027.1 mb 0.01 in0.3 mm 0.09 in2.3 mm 0.01 in0.3 mm
11:19 AM 30.0°F-1.1°C 26.8°F-2.9°C 87% 5.0 mph WNW8.0 kmh WNW 15.0 mph24.1 kmh 30.33 in1027.1 mb 0.00 in0.0 mm 0.00 in0.0 mm 0.00 in0.0 mm
11:12 AM 30.2°F-1.0°C 27.1°F-2.7°C 88% 7.0 mph W11.3 kmh W 17.0 mph27.4 kmh 30.32 in1026.8 mb 0.00 in0.0 mm 0.00 in0.0 mm 0.00 in0.0 mm
11:05 AM 30.4°F-0.9°C 27.5°F-2.5°C 89% 5.0 mph W8.0 kmh W 15.0 mph24.1 kmh 30.33 in1027.1 mb 0.00 in0.0 mm 0.00 in0.0 mm 0.00 in0.0 mm
10:58 AM 29.7°F-1.3°C 27.0°F-2.8°C 90% 5.0 mph W8.0 kmh W 13.0 mph20.9 kmh 30.33 in1027.1 mb 0.00 in0.0 mm 0.00 in0.0 mm 0.00 in0.0 mm
10:51 AM 28.9°F-1.7°C 26.4°F-3.1°C 90% 5.0 mph W8.0 kmh W 16.0 mph25.7 kmh 30.33 in1027.1 mb 0.00 in0.0 mm 0.00 in0.0 mm 0.00 in0.0 mm
10:44 AM 28.6°F-1.9°C 25.9°F-3.4°C 90% 3.0 mph WNW4.8 kmh WNW 9.0 mph14.5 kmh 30.33 in1027.1 mb 0.00 in0.0 mm 0.00 in0.0 mm 0.00 in0.0 mm
10:37 AM 28.2°F-2.1°C 25.7°F-3.5°C 90% 4.0 mph WNW6.4 kmh WNW 11.0 mph17.7 kmh 30.33 in1027.1 mb 0.00 in0.0 mm 0.00 in0.0 mm 0.00 in0.0 mm
10:30 AM 28.2°F-2.1°C 25.7°F-3.5°C 90% 5.0 mph WNW8.0 kmh WNW 13.0 mph20.9 kmh 30.33 in1027.1 mb 0.00 in0.0 mm 0.00 in0.0 mm 0.00 in0.0 mm
10:23 AM 28.2°F-2.1°C 25.7°F-3.5°C 90% 7.0 mph W11.3 kmh W 15.0 mph24.1 kmh 30.33 in1027.1 mb 0.00 in0.0 mm 0.00 in0.0 mm 0.00 in0.0 mm
10:16 AM 28.0°F-2.2°C 25.5°F-3.6°C 90% 5.0 mph W8.0 kmh W 16.0 mph25.7 kmh 30.32 in1026.8 mb 0.00 in0.0 mm 0.00 in0.0 mm 0.00 in0.0 mm
10:09 AM 28.0°F-2.2°C 25.5°F-3.6°C 90% 7.0 mph W11.3 kmh W 16.0 mph25.7 kmh 30.32 in1026.8 mb 0.00 in0.0 mm 0.00 in0.0 mm 0.00 in0.0 mm
10:02 AM 27.9°F-2.3°C 25.2°F-3.8°C 90% 7.0 mph W11.3 kmh W 13.0 mph20.9 kmh 30.32 in1026.8 mb 0.00 in0.0 mm 0.00 in0.0 mm 0.00 in0.0 mm
09:55 AM 27.7°F-2.4°C 25.0°F-3.9°C 90% 7.0 mph W11.3 kmh W 15.0 mph24.1 kmh 30.32 in1026.8 mb 0.00 in0.0 mm 0.00 in0.0 mm 0.00 in0.0 mm
09:48 AM 27.5°F-2.5°C 25.0°F-3.9°C 90% 7.0 mph W11.3 kmh W 15.0 mph24.1 kmh 30.31 in1026.4 mb 0.00 in0.0 mm 0.00 in0.0 mm 0.00 in0.0 mm
09:41 AM 27.5°F-2.5°C 25.0°F-3.9°C 90% 5.0 mph W8.0 kmh W 13.0 mph20.9 kmh 30.31 in1026.4 mb 0.00 in0.0 mm 0.00 in0.0 mm 0.00 in0.0 mm
09:34 AM 27.5°F-2.5°C 25.0°F-3.9°C 90% 5.0 mph W8.0 kmh W 12.0 mph19.3 kmh 30.31 in1026.4 mb 0.00 in0.0 mm 0.00 in0.0 mm 0.00 in0.0 mm
09:27 AM 27.7°F-2.4°C 25.0°F-3.9°C 90% 5.0 mph W8.0 kmh W 9.0 mph14.5 kmh 30.30 in1026.1 mb 0.00 in0.0 mm 0.00 in0.0 mm 0.00 in0.0 mm
09:20 AM 27.7°F-2.4°C 25.2°F-3.8°C 90% 5.0 mph W8.0 kmh W 13.0 mph20.9 kmh 30.30 in1026.1 mb 0.00 in0.0 mm 0.00 in0.0 mm 0.00 in0.0 mm
09:13 AM 27.9°F-2.3°C 25.2°F-3.8°C 89% 7.0 mph W11.3 kmh W 16.0 mph25.7 kmh 30.30 in1026.1 mb 0.00 in0.0 mm 0.00 in0.0 mm 0.00 in0.0 mm
09:06 AM 27.9°F-2.3°C 25.0°F-3.9°C 89% 7.0 mph W11.3 kmh W 16.0 mph25.7 kmh 30.30 in1026.1 mb 0.00 in0.0 mm 0.00 in0.0 mm 0.00 in0.0 mm
08:59 AM 27.3°F-2.6°C 24.3°F-4.3°C 88% 4.0 mph W6.4 kmh W 9.0 mph14.5 kmh 30.30 in1026.1 mb 0.00 in0.0 mm 0.00 in0.0 mm 0.00 in0.0 mm
08:52 AM 27.3°F-2.6°C 24.3°F-4.3°C 88% 4.0 mph WSW6.4 kmh WSW 9.0 mph14.5 kmh 30.29 in1025.7 mb 0.00 in0.0 mm 0.00 in0.0 mm 0.00 in0.0 mm
08:45 AM 27.3°F-2.6°C 24.3°F-4.3°C 88% 3.0 mph WSW4.8 kmh WSW 9.0 mph14.5 kmh 30.29 in1025.7 mb 0.00 in0.0 mm 0.00 in0.0 mm 0.00 in0.0 mm
08:38 AM 27.3°F-2.6°C 24.6°F-4.1°C 89% 4.0 mph W6.4 kmh W 13.0 mph20.9 kmh 30.29 in1025.7 mb 0.00 in0.0 mm 0.00 in0.0 mm 0.00 in0.0 mm
08:31 AM 27.3°F-2.6°C 24.3°F-4.3°C 88% 3.0 mph W4.8 kmh W 12.0 mph19.3 kmh 30.29 in1025.7 mb 0.00 in0.0 mm 0.00 in0.0 mm 0.00 in0.0 mm
08:24 AM 27.3°F-2.6°C 24.4°F-4.2°C 89% 1.0 mph W1.6 kmh W 8.0 mph12.9 kmh 30.29 in1025.7 mb 0.00 in0.0 mm 0.00 in0.0 mm 0.00 in0.0 mm
08:17 AM 27.1°F-2.7°C 24.4°F-4.2°C 89% 3.0 mph W4.8 kmh W 8.0 mph12.9 kmh 30.29 in1025.7 mb 0.00 in0.0 mm 0.00 in0.0 mm 0.00 in0.0 mm
08:10 AM 27.1°F-2.7°C 24.3°F-4.3°C 89% 1.0 mph W1.6 kmh W 8.0 mph12.9 kmh 30.28 in1025.4 mb 0.00 in0.0 mm 0.00 in0.0 mm 0.00 in0.0 mm
08:03 AM 27.1°F-2.7°C 24.3°F-4.3°C 89% 3.0 mph W4.8 kmh W 13.0 mph20.9 kmh 30.28 in1025.4 mb 0.00 in0.0 mm 0.00 in0.0 mm 0.00 in0.0 mm
07:56 AM 27.1°F-2.7°C 24.1°F-4.4°C 88% 4.0 mph W6.4 kmh W 13.0 mph20.9 kmh 30.28 in1025.4 mb 0.00 in0.0 mm 0.00 in0.0 mm 0.00 in0.0 mm
07:49 AM 27.0°F-2.8°C 23.9°F-4.5°C 88% 1.0 mph W1.6 kmh W 7.0 mph11.3 kmh 30.28 in1025.4 mb 0.00 in0.0 mm 0.00 in0.0 mm 0.00 in0.0 mm
07:42 AM 26.8°F-2.9°C 23.4°F-4.8°C 87% 1.0 mph W1.6 kmh W 5.0 mph8.0 kmh 30.28 in1025.4 mb 0.00 in0.0 mm 0.00 in0.0 mm 0.00 in0.0 mm
07:35 AM 26.6°F-3.0°C 23.2°F-4.9°C 87% 4.0 mph W6.4 kmh W 9.0 mph14.5 kmh 30.27 in1025.1 mb 0.00 in0.0 mm 0.00 in0.0 mm 0.00 in0.0 mm
07:28 AM 26.4°F-3.1°C 22.8°F-5.1°C 86% 3.0 mph W4.8 kmh W 9.0 mph14.5 kmh 30.27 in1025.1 mb 0.00 in0.0 mm 0.00 in0.0 mm 0.00 in0.0 mm
07:21 AM 26.4°F-3.1°C 22.8°F-5.1°C 86% 3.0 mph W4.8 kmh W 9.0 mph14.5 kmh 30.27 in1025.1 mb 0.00 in0.0 mm 0.00 in0.0 mm 0.00 in0.0 mm
07:14 AM 26.4°F-3.1°C 22.8°F-5.1°C 86% 3.0 mph W4.8 kmh W 9.0 mph14.5 kmh 30.27 in1025.1 mb 0.00 in0.0 mm 0.00 in0.0 mm 0.00 in0.0 mm
07:07 AM 26.2°F-3.2°C 22.6°F-5.2°C 86% 1.0 mph W1.6 kmh W 8.0 mph12.9 kmh 30.26 in1024.7 mb 0.00 in0.0 mm 0.00 in0.0 mm 0.00 in0.0 mm
07:00 AM 26.4°F-3.1°C 22.8°F-5.1°C 86% 1.0 mph W1.6 kmh W 8.0 mph12.9 kmh 30.26 in1024.7 mb 0.00 in0.0 mm 0.00 in0.0 mm 0.00 in0.0 mm
06:53 AM 26.4°F-3.1°C 22.6°F-5.2°C 85% 3.0 mph W4.8 kmh W 12.0 mph19.3 kmh 30.26 in1024.7 mb 0.00 in0.0 mm 0.00 in0.0 mm 0.00 in0.0 mm
06:46 AM 26.8°F-2.9°C 22.8°F-5.1°C 85% 3.0 mph W4.8 kmh W 12.0 mph19.3 kmh 30.25 in1024.4 mb 0.00 in0.0 mm 0.00 in0.0 mm 0.00 in0.0 mm
06:39 AM 26.8°F-2.9°C 22.8°F-5.1°C 85% 4.0 mph W6.4 kmh W 8.0 mph12.9 kmh 30.25 in1024.4 mb 0.00 in0.0 mm 0.00 in0.0 mm 0.00 in0.0 mm
06:32 AM 27.0°F-2.8°C 23.4°F-4.8°C 86% 4.0 mph W6.4 kmh W 9.0 mph14.5 kmh 30.25 in1024.4 mb 0.00 in0.0 mm 0.00 in0.0 mm 0.00 in0.0 mm
06:25 AM 27.1°F-2.7°C 23.5°F-4.7°C 86% 5.0 mph W8.0 kmh W 9.0 mph14.5 kmh 30.25 in1024.4 mb 0.00 in0.0 mm 0.00 in0.0 mm 0.00 in0.0 mm
06:18 AM 27.0°F-2.8°C 23.7°F-4.6°C 87% 5.0 mph W8.0 kmh W 15.0 mph24.1 kmh 30.25 in1024.4 mb 0.00 in0.0 mm 0.00 in0.0 mm 0.00 in0.0 mm
06:11 AM 27.0°F-2.8°C 23.5°F-4.7°C 87% 5.0 mph W8.0 kmh W 12.0 mph19.3 kmh 30.25 in1024.4 mb 0.00 in0.0 mm 0.00 in0.0 mm 0.00 in0.0 mm
06:04 AM 27.0°F-2.8°C 23.5°F-4.7°C 87% 4.0 mph W6.4 kmh W 12.0 mph19.3 kmh 30.24 in1024.0 mb 0.00 in0.0 mm 0.00 in0.0 mm 0.00 in0.0 mm
05:57 AM 27.0°F-2.8°C 23.5°F-4.7°C 87% 5.0 mph W8.0 kmh W 11.0 mph17.7 kmh 30.24 in1024.0 mb 0.00 in0.0 mm 0.00 in0.0 mm 0.00 in0.0 mm
05:50 AM 27.0°F-2.8°C 23.5°F-4.7°C 87% 4.0 mph W6.4 kmh W 9.0 mph14.5 kmh 30.24 in1024.0 mb 0.00 in0.0 mm 0.00 in0.0 mm 0.00 in0.0 mm
05:43 AM 27.0°F-2.8°C 23.4°F-4.8°C 86% 5.0 mph W8.0 kmh W 15.0 mph24.1 kmh 30.24 in1024.0 mb 0.00 in0.0 mm 0.00 in0.0 mm 0.00 in0.0 mm
05:36 AM 27.0°F-2.8°C 23.4°F-4.8°C 86% 5.0 mph W8.0 kmh W 16.0 mph25.7 kmh 30.24 in1024.0 mb 0.00 in0.0 mm 0.00 in0.0 mm 0.00 in0.0 mm
05:29 AM 27.1°F-2.7°C 23.2°F-4.9°C 85% 4.0 mph W6.4 kmh W 9.0 mph14.5 kmh 30.24 in1024.0 mb 0.00 in0.0 mm 0.00 in0.0 mm 0.00 in0.0 mm
05:22 AM 27.1°F-2.7°C 23.0°F-5.0°C 84% 4.0 mph W6.4 kmh W 8.0 mph12.9 kmh 30.24 in1024.0 mb 0.00 in0.0 mm 0.00 in0.0 mm 0.00 in0.0 mm
05:15 AM 27.3°F-2.6°C 23.2°F-4.9°C 84% 3.0 mph W4.8 kmh W 8.0 mph12.9 kmh 30.23 in1023.7 mb 0.00 in0.0 mm 0.00 in0.0 mm 0.00 in0.0 mm
05:08 AM 27.9°F-2.3°C 23.0°F-5.0°C 82% 3.0 mph W4.8 kmh W 13.0 mph20.9 kmh 30.23 in1023.7 mb 0.00 in0.0 mm 0.00 in0.0 mm 0.00 in0.0 mm
05:01 AM 28.0°F-2.2°C 23.2°F-4.9°C 82% 4.0 mph WNW6.4 kmh WNW 13.0 mph20.9 kmh 30.23 in1023.7 mb 0.00 in0.0 mm 0.00 in0.0 mm 0.00 in0.0 mm
04:54 AM 28.0°F-2.2°C 23.0°F-5.0°C 81% 5.0 mph WNW8.0 kmh WNW 13.0 mph20.9 kmh 30.23 in1023.7 mb 0.00 in0.0 mm 0.00 in0.0 mm 0.00 in0.0 mm
04:47 AM 28.2°F-2.1°C 23.2°F-4.9°C 81% 5.0 mph WNW8.0 kmh WNW 13.0 mph20.9 kmh 30.22 in1023.4 mb 0.00 in0.0 mm 0.00 in0.0 mm 0.00 in0.0 mm
04:40 AM 28.2°F-2.1°C 23.2°F-4.9°C 81% 7.0 mph W11.3 kmh W 16.0 mph25.7 kmh 30.22 in1023.4 mb 0.00 in0.0 mm 0.00 in0.0 mm 0.00 in0.0 mm
04:33 AM 28.4°F-2.0°C 23.4°F-4.8°C 81% 5.0 mph W8.0 kmh W 16.0 mph25.7 kmh 30.22 in1023.4 mb 0.00 in0.0 mm 0.00 in0.0 mm 0.00 in0.0 mm
04:26 AM 28.6°F-1.9°C 23.4°F-4.8°C 81% 5.0 mph W8.0 kmh W 15.0 mph24.1 kmh 30.22 in1023.4 mb 0.00 in0.0 mm 0.00 in0.0 mm 0.00 in0.0 mm
04:19 AM 28.8°F-1.8°C 23.5°F-4.7°C 81% 5.0 mph WNW8.0 kmh WNW 17.0 mph27.4 kmh 30.22 in1023.4 mb 0.00 in0.0 mm 0.00 in0.0 mm 0.00 in0.0 mm
04:12 AM 28.8°F-1.8°C 23.5°F-4.7°C 81% 8.0 mph WNW12.9 kmh WNW 17.0 mph27.4 kmh 30.22 in1023.4 mb 0.00 in0.0 mm 0.00 in0.0 mm 0.00 in0.0 mm
04:05 AM 28.8°F-1.8°C 23.9°F-4.5°C 82% 8.0 mph WNW12.9 kmh WNW 16.0 mph25.7 kmh 30.22 in1023.4 mb 0.00 in0.0 mm 0.00 in0.0 mm 0.00 in0.0 mm
03:58 AM 28.6°F-1.9°C 23.7°F-4.6°C 82% 8.0 mph WNW12.9 kmh WNW 17.0 mph27.4 kmh 30.22 in1023.4 mb 0.00 in0.0 mm 0.00 in0.0 mm 0.00 in0.0 mm
03:51 AM 28.4°F-2.0°C 23.5°F-4.7°C 82% 7.0 mph WNW11.3 kmh WNW 17.0 mph27.4 kmh 30.22 in1023.4 mb 0.00 in0.0 mm 0.00 in0.0 mm 0.00 in0.0 mm
03:44 AM 28.4°F-2.0°C 23.5°F-4.7°C 82% 7.0 mph W11.3 kmh W 16.0 mph25.7 kmh 30.22 in1023.4 mb 0.00 in0.0 mm 0.00 in0.0 mm 0.00 in0.0 mm
03:37 AM 28.2°F-2.1°C 23.5°F-4.7°C 82% 5.0 mph W8.0 kmh W 13.0 mph20.9 kmh 30.21 in1023.0 mb 0.00 in0.0 mm 0.00 in0.0 mm 0.00 in0.0 mm
03:30 AM 28.2°F-2.1°C 23.4°F-4.8°C 82% 4.0 mph W6.4 kmh W 13.0 mph20.9 kmh 30.21 in1023.0 mb 0.00 in0.0 mm 0.00 in0.0 mm 0.00 in0.0 mm
03:23 AM 28.0°F-2.2°C 23.5°F-4.7°C 83% 4.0 mph WNW6.4 kmh WNW 13.0 mph20.9 kmh 30.21 in1023.0 mb 0.00 in0.0 mm 0.00 in0.0 mm 0.00 in0.0 mm
03:16 AM 27.9°F-2.3°C 23.9°F-4.5°C 85% 5.0 mph W8.0 kmh W 17.0 mph27.4 kmh 30.21 in1023.0 mb 0.00 in0.0 mm 0.00 in0.0 mm 0.00 in0.0 mm
03:09 AM 27.9°F-2.3°C 24.1°F-4.4°C 86% 5.0 mph W8.0 kmh W 17.0 mph27.4 kmh 30.21 in1023.0 mb 0.00 in0.0 mm 0.00 in0.0 mm 0.00 in0.0 mm
03:02 AM 27.7°F-2.4°C 23.9°F-4.5°C 86% 4.0 mph W6.4 kmh W 11.0 mph17.7 kmh 30.21 in1023.0 mb 0.00 in0.0 mm 0.00 in0.0 mm 0.00 in0.0 mm
02:55 AM 27.7°F-2.4°C 23.9°F-4.5°C 86% 4.0 mph W6.4 kmh W 9.0 mph14.5 kmh 30.21 in1023.0 mb 0.00 in0.0 mm 0.00 in0.0 mm 0.00 in0.0 mm
02:48 AM 27.7°F-2.4°C 23.7°F-4.6°C 85% 4.0 mph W6.4 kmh W 8.0 mph12.9 kmh 30.20 in1022.7 mb 0.00 in0.0 mm 0.00 in0.0 mm 0.00 in0.0 mm
02:41 AM 27.9°F-2.3°C 23.9°F-4.5°C 85% 5.0 mph W8.0 kmh W 13.0 mph20.9 kmh 30.20 in1022.7 mb 0.00 in0.0 mm 0.00 in0.0 mm 0.00 in0.0 mm
02:34 AM 27.9°F-2.3°C 23.9°F-4.5°C 85% 5.0 mph W8.0 kmh W 13.0 mph20.9 kmh 30.20 in1022.7 mb 0.00 in0.0 mm 0.00 in0.0 mm 0.00 in0.0 mm
02:27 AM 27.9°F-2.3°C 23.9°F-4.5°C 85% 5.0 mph W8.0 kmh W 13.0 mph20.9 kmh 30.20 in1022.7 mb 0.00 in0.0 mm 0.00 in0.0 mm 0.00 in0.0 mm
02:20 AM 28.0°F-2.2°C 23.7°F-4.6°C 84% 4.0 mph W6.4 kmh W 12.0 mph19.3 kmh 30.19 in1022.4 mb 0.00 in0.0 mm 0.00 in0.0 mm 0.00 in0.0 mm
02:13 AM 28.2°F-2.1°C 23.7°F-4.6°C 83% 4.0 mph W6.4 kmh W 16.0 mph25.7 kmh 30.19 in1022.4 mb 0.00 in0.0 mm 0.00 in0.0 mm 0.00 in0.0 mm
02:06 AM 28.4°F-2.0°C 23.9°F-4.5°C 83% 7.0 mph WNW11.3 kmh WNW 13.0 mph20.9 kmh 30.19 in1022.4 mb 0.00 in0.0 mm 0.00 in0.0 mm 0.00 in0.0 mm
01:59 AM 28.2°F-2.1°C 23.7°F-4.6°C 83% 7.0 mph WNW11.3 kmh WNW 16.0 mph25.7 kmh 30.18 in1022.0 mb 0.00 in0.0 mm 0.00 in0.0 mm 0.00 in0.0 mm
01:52 AM 28.2°F-2.1°C 23.7°F-4.6°C 83% 7.0 mph W11.3 kmh W 17.0 mph27.4 kmh 30.18 in1022.0 mb 0.00 in0.0 mm 0.00 in0.0 mm 0.00 in0.0 mm
01:45 AM 28.2°F-2.1°C 23.7°F-4.6°C 83% 7.0 mph W11.3 kmh W 17.0 mph27.4 kmh 30.18 in1022.0 mb 0.00 in0.0 mm 0.00 in0.0 mm 0.00 in0.0 mm
01:38 AM 27.9°F-2.3°C 23.7°F-4.6°C 84% 5.0 mph WNW8.0 kmh WNW 13.0 mph20.9 kmh 30.17 in1021.7 mb 0.00 in0.0 mm 0.00 in0.0 mm 0.00 in0.0 mm
01:31 AM 27.7°F-2.4°C 23.7°F-4.6°C 85% 4.0 mph W6.4 kmh W 12.0 mph19.3 kmh 30.17 in1021.7 mb 0.00 in0.0 mm 0.00 in0.0 mm 0.00 in0.0 mm
01:24 AM 27.5°F-2.5°C 23.9°F-4.5°C 86% 3.0 mph W4.8 kmh W 12.0 mph19.3 kmh 30.17 in1021.7 mb 0.00 in0.0 mm 0.00 in0.0 mm 0.00 in0.0 mm
01:17 AM 27.5°F-2.5°C 23.9°F-4.5°C 86% 3.0 mph W4.8 kmh W 8.0 mph12.9 kmh 30.17 in1021.7 mb 0.00 in0.0 mm 0.00 in0.0 mm 0.00 in0.0 mm
01:10 AM 27.7°F-2.4°C 23.9°F-4.5°C 86% 4.0 mph W6.4 kmh W 11.0 mph17.7 kmh 30.16 in1021.3 mb 0.00 in0.0 mm 0.00 in0.0 mm 0.00 in0.0 mm
01:03 AM 27.7°F-2.4°C 23.9°F-4.5°C 86% 3.0 mph W4.8 kmh W 11.0 mph17.7 kmh 30.16 in1021.3 mb 0.00 in0.0 mm 0.00 in0.0 mm 0.00 in0.0 mm
12:56 AM 27.7°F-2.4°C 23.7°F-4.6°C 85% 3.0 mph W4.8 kmh W 7.0 mph11.3 kmh 30.16 in1021.3 mb 0.00 in0.0 mm 0.00 in0.0 mm 0.00 in0.0 mm
12:49 AM 27.9°F-2.3°C 23.9°F-4.5°C 85% 4.0 mph W6.4 kmh W 15.0 mph24.1 kmh 30.16 in1021.3 mb 0.00 in0.0 mm 0.00 in0.0 mm 0.00 in0.0 mm
12:42 AM 27.9°F-2.3°C 23.9°F-4.5°C 85% 4.0 mph W6.4 kmh W 15.0 mph24.1 kmh 30.15 in1021.0 mb 0.00 in0.0 mm 0.00 in0.0 mm 0.00 in0.0 mm
12:35 AM 28.0°F-2.2°C 24.3°F-4.3°C 85% 5.0 mph W8.0 kmh W 15.0 mph24.1 kmh 30.16 in1021.3 mb 0.00 in0.0 mm 0.00 in0.0 mm 0.00 in0.0 mm
12:28 AM 28.2°F-2.1°C 24.3°F-4.3°C 85% 5.0 mph W8.0 kmh W 12.0 mph19.3 kmh 30.16 in1021.3 mb 0.00 in0.0 mm 0.00 in0.0 mm 0.00 in0.0 mm
12:21 AM 28.2°F-2.1°C 24.4°F-4.2°C 85% 5.0 mph W8.0 kmh W 15.0 mph24.1 kmh 30.16 in1021.3 mb 0.00 in0.0 mm 0.00 in0.0 mm 0.00 in0.0 mm
12:14 AM 28.2°F-2.1°C 24.3°F-4.3°C 85% 5.0 mph W8.0 kmh W 15.0 mph24.1 kmh 30.15 in1021.0 mb 0.00 in0.0 mm 0.00 in0.0 mm 0.00 in0.0 mm
12:07 AM 28.0°F-2.2°C 24.3°F-4.3°C 85% 5.0 mph W8.0 kmh W 12.0 mph19.3 kmh 30.15 in1021.0 mb 0.00 in0.0 mm 0.00 in0.0 mm 0.00 in0.0 mm
12:00 AM 28.0°F-2.2°C 24.3°F-4.3°C 85% 5.0 mph W8.0 kmh W 12.0 mph19.3 kmh 30.15 in1021.0 mb 0.00 in0.0 mm 0.00 in0.0 mm 0.00 in0.0 mm